sensor_id;sensor_type;location;lat;lon;timestamp;pressure;altitude;pressure_sealevel;temperature;humidity
63903;BME280;50072;50.678;13.938;2023-02-28T00:00:42;100856.66;;;-0.47;72.48
63903;BME280;50072;50.678;13.938;2023-02-28T00:03:35;100848.72;;;-0.49;72.70
63903;BME280;50072;50.678;13.938;2023-02-28T00:06:09;100855.84;;;-0.46;73.27
63903;BME280;50072;50.678;13.938;2023-02-28T00:08:35;100848.78;;;-0.47;73.63
63903;BME280;50072;50.678;13.938;2023-02-28T00:11:07;100851.59;;;-0.43;73.97
63903;BME280;50072;50.678;13.938;2023-02-28T00:13:36;100854.28;;;-0.41;73.08
63903;BME280;50072;50.678;13.938;2023-02-28T00:16:14;100847.34;;;-0.39;73.11
63903;BME280;50072;50.678;13.938;2023-02-28T00:18:41;100852.81;;;-0.33;72.58
63903;BME280;50072;50.678;13.938;2023-02-28T00:21:09;100855.59;;;-0.30;72.71
63903;BME280;50072;50.678;13.938;2023-02-28T00:23:36;100845.84;;;-0.32;72.72
63903;BME280;50072;50.678;13.938;2023-02-28T00:26:07;100851.16;;;-0.31;73.21
63903;BME280;50072;50.678;13.938;2023-02-28T00:28:35;100858.41;;;-0.25;72.34
63903;BME280;50072;50.678;13.938;2023-02-28T00:31:05;100852.31;;;-0.24;72.56
63903;BME280;50072;50.678;13.938;2023-02-28T00:33:36;100855.75;;;-0.25;72.48
63903;BME280;50072;50.678;13.938;2023-02-28T00:36:07;100861.91;;;-0.25;72.45
63903;BME280;50072;50.678;13.938;2023-02-28T00:38:35;100855.88;;;-0.22;72.41
63903;BME280;50072;50.678;13.938;2023-02-28T00:41:04;100855.00;;;-0.23;72.05
63903;BME280;50072;50.678;13.938;2023-02-28T00:43:36;100849.59;;;-0.26;71.78
63903;BME280;50072;50.678;13.938;2023-02-28T00:46:05;100859.38;;;-0.22;72.80
63903;BME280;50072;50.678;13.938;2023-02-28T00:48:36;100846.69;;;-0.33;72.06
63903;BME280;50072;50.678;13.938;2023-02-28T00:51:05;100850.38;;;-0.28;72.64
63903;BME280;50072;50.678;13.938;2023-02-28T00:53:34;100844.97;;;-0.31;72.64
63903;BME280;50072;50.678;13.938;2023-02-28T00:56:02;100852.09;;;-0.29;73.16
63903;BME280;50072;50.678;13.938;2023-02-28T00:58:35;100845.78;;;-0.34;73.08
63903;BME280;50072;50.678;13.938;2023-02-28T01:01:04;100843.94;;;-0.37;73.24
63903;BME280;50072;50.678;13.938;2023-02-28T01:03:34;100841.25;;;-0.38;73.36
63903;BME280;50072;50.678;13.938;2023-02-28T01:06:05;100844.72;;;-0.39;72.96
63903;BME280;50072;50.678;13.938;2023-02-28T01:08:34;100845.53;;;-0.40;72.57
63903;BME280;50072;50.678;13.938;2023-02-28T01:11:13;100843.78;;;-0.41;72.90
63903;BME280;50072;50.678;13.938;2023-02-28T01:14:05;100843.78;;;-0.41;72.87
63903;BME280;50072;50.678;13.938;2023-02-28T01:16:35;100837.41;;;-0.46;72.89
63903;BME280;50072;50.678;13.938;2023-02-28T01:19:05;100838.25;;;-0.47;72.38
63903;BME280;50072;50.678;13.938;2023-02-28T01:21:34;100832.88;;;-0.50;72.55
63903;BME280;50072;50.678;13.938;2023-02-28T01:24:05;100841.84;;;-0.45;72.65
63903;BME280;50072;50.678;13.938;2023-02-28T01:26:34;100833.03;;;-0.46;72.79
63903;BME280;50072;50.678;13.938;2023-02-28T01:29:06;100833.84;;;-0.48;72.99
63903;BME280;50072;50.678;13.938;2023-02-28T01:31:35;100832.88;;;-0.50;72.94
63903;BME280;50072;50.678;13.938;2023-02-28T01:34:04;100831.88;;;-0.54;73.00
63903;BME280;50072;50.678;13.938;2023-02-28T01:36:36;100826.53;;;-0.56;72.42
63903;BME280;50072;50.678;13.938;2023-02-28T01:39:04;100829.16;;;-0.56;72.51
63903;BME280;50072;50.678;13.938;2023-02-28T01:41:36;100826.38;;;-0.60;72.93
63903;BME280;50072;50.678;13.938;2023-02-28T01:44:53;100820.34;;;-0.58;72.42
63903;BME280;50072;50.678;13.938;2023-02-28T01:47:01;100817.28;;;-0.68;72.66
63903;BME280;50072;50.678;13.938;2023-02-28T01:49:29;100818.97;;;-0.71;73.78
63903;BME280;50072;50.678;13.938;2023-02-28T01:52:05;100815.66;;;-0.88;74.47
63903;BME280;50072;50.678;13.938;2023-02-28T01:54:37;100812.53;;;-1.00;73.70
63903;BME280;50072;50.678;13.938;2023-02-28T01:57:09;100818.16;;;-1.13;74.54
63903;BME280;50072;50.678;13.938;2023-02-28T01:59:42;100815.22;;;-1.21;74.73
63903;BME280;50072;50.678;13.938;2023-02-28T02:02:22;100812.25;;;-1.29;73.93
63903;BME280;50072;50.678;13.938;2023-02-28T02:05:09;100813.59;;;-1.39;75.32
63903;BME280;50072;50.678;13.938;2023-02-28T02:07:37;100825.72;;;-1.42;74.58
63903;BME280;50072;50.678;13.938;2023-02-28T02:10:28;100817.50;;;-1.50;74.57
63903;BME280;50072;50.678;13.938;2023-02-28T02:16:42;100817.06;;;-1.61;75.87
63903;BME280;50072;50.678;13.938;2023-02-28T02:25:38;100807.44;;;-1.81;76.76
63903;BME280;50072;50.678;13.938;2023-02-28T02:28:41;100810.50;;;-1.92;77.27
63903;BME280;50072;50.678;13.938;2023-02-28T02:37:33;100815.97;;;-2.06;79.05
63903;BME280;50072;50.678;13.938;2023-02-28T02:40:13;100814.94;;;-2.10;78.35
63903;BME280;50072;50.678;13.938;2023-02-28T02:43:07;100815.47;;;-2.17;78.67
63903;BME280;50072;50.678;13.938;2023-02-28T02:45:41;100813.41;;;-2.24;79.35
63903;BME280;50072;50.678;13.938;2023-02-28T02:48:15;100814.16;;;-2.27;79.53
63903;BME280;50072;50.678;13.938;2023-02-28T02:51:07;100814.84;;;-2.31;79.35
63903;BME280;50072;50.678;13.938;2023-02-28T02:56:35;100808.03;;;-2.28;78.93
63903;BME280;50072;50.678;13.938;2023-02-28T02:59:08;100810.22;;;-2.37;79.64
63903;BME280;50072;50.678;13.938;2023-02-28T03:01:41;100819.75;;;-2.39;80.04
63903;BME280;50072;50.678;13.938;2023-02-28T03:04:19;100806.09;;;-2.51;80.49
63903;BME280;50072;50.678;13.938;2023-02-28T03:06:52;100813.81;;;-2.54;81.37
63903;BME280;50072;50.678;13.938;2023-02-28T03:09:27;100814.34;;;-2.62;82.06
63903;BME280;50072;50.678;13.938;2023-02-28T03:12:09;100814.28;;;-2.63;81.78
63903;BME280;50072;50.678;13.938;2023-02-28T03:17:35;100810.25;;;-2.74;82.29
63903;BME280;50072;50.678;13.938;2023-02-28T03:20:32;100819.53;;;-2.81;82.76
63903;BME280;50072;50.678;13.938;2023-02-28T03:26:27;100821.50;;;-2.95;83.32
63903;BME280;50072;50.678;13.938;2023-02-28T03:29:30;100820.19;;;-3.05;83.30
63903;BME280;50072;50.678;13.938;2023-02-28T03:32:26;100818.91;;;-3.13;83.45
63903;BME280;50072;50.678;13.938;2023-02-28T03:35:07;100824.28;;;-3.10;83.69
63903;BME280;50072;50.678;13.938;2023-02-28T03:37:37;100826.91;;;-3.10;83.55
63903;BME280;50072;50.678;13.938;2023-02-28T03:40:08;100828.47;;;-3.14;83.67
63903;BME280;50072;50.678;13.938;2023-02-28T03:42:43;100822.78;;;-3.23;83.73
63903;BME280;50072;50.678;13.938;2023-02-28T03:45:20;100824.34;;;-3.26;84.53
63903;BME280;50072;50.678;13.938;2023-02-28T03:48:15;100822.56;;;-3.27;83.94
63903;BME280;50072;50.678;13.938;2023-02-28T03:51:04;100825.84;;;-3.32;84.32
63903;BME280;50072;50.678;13.938;2023-02-28T04:02:31;100820.16;;;-3.59;84.48
63903;BME280;50072;50.678;13.938;2023-02-28T04:05:06;100820.81;;;-3.63;84.82
63903;BME280;50072;50.678;13.938;2023-02-28T04:07:35;100830.06;;;-3.70;84.77
63903;BME280;50072;50.678;13.938;2023-02-28T04:10:06;100827.59;;;-3.67;84.74
63903;BME280;50072;50.678;13.938;2023-02-28T04:12:34;100834.63;;;-3.66;84.30
63903;BME280;50072;50.678;13.938;2023-02-28T04:15:04;100821.31;;;-3.70;84.15
63903;BME280;50072;50.678;13.938;2023-02-28T04:17:35;100827.22;;;-3.74;84.57
63903;BME280;50072;50.678;13.938;2023-02-28T04:20:03;100827.88;;;-3.78;84.64
63903;BME280;50072;50.678;13.938;2023-02-28T04:22:35;100824.09;;;-3.84;85.06
63903;BME280;50072;50.678;13.938;2023-02-28T04:25:05;100828.69;;;-3.79;84.96
63903;BME280;50072;50.678;13.938;2023-02-28T04:27:35;100839.16;;;-3.79;85.32
63903;BME280;50072;50.678;13.938;2023-02-28T04:30:05;100831.88;;;-3.85;85.36
63903;BME280;50072;50.678;13.938;2023-02-28T04:32:34;100832.88;;;-3.83;85.18
63903;BME280;50072;50.678;13.938;2023-02-28T04:35:04;100838.91;;;-3.84;85.43
63903;BME280;50072;50.678;13.938;2023-02-28T04:37:34;100843.06;;;-3.88;85.50
63903;BME280;50072;50.678;13.938;2023-02-28T04:40:04;100835.16;;;-3.89;85.99
63903;BME280;50072;50.678;13.938;2023-02-28T04:42:36;100837.47;;;-3.95;85.55
63903;BME280;50072;50.678;13.938;2023-02-28T04:45:04;100842.13;;;-4.06;85.88
63903;BME280;50072;50.678;13.938;2023-02-28T04:47:36;100843.66;;;-4.26;85.57
63903;BME280;50072;50.678;13.938;2023-02-28T04:50:05;100844.00;;;-4.37;85.74
63903;BME280;50072;50.678;13.938;2023-02-28T04:52:35;100841.38;;;-4.37;86.32
63903;BME280;50072;50.678;13.938;2023-02-28T04:55:00;100843.66;;;-4.26;85.78
63903;BME280;50072;50.678;13.938;2023-02-28T04:57:34;100846.38;;;-4.25;86.03
63903;BME280;50072;50.678;13.938;2023-02-28T05:00:02;100846.78;;;-4.17;86.39
63903;BME280;50072;50.678;13.938;2023-02-28T05:02:34;100845.31;;;-4.28;86.32
63903;BME280;50072;50.678;13.938;2023-02-28T05:05:01;100846.03;;;-4.31;87.03
63903;BME280;50072;50.678;13.938;2023-02-28T05:07:29;100857.78;;;-4.39;86.98
63903;BME280;50072;50.678;13.938;2023-02-28T05:09:55;100850.22;;;-4.35;87.32
63903;BME280;50072;50.678;13.938;2023-02-28T05:12:22;100856.91;;;-4.40;87.33
63903;BME280;50072;50.678;13.938;2023-02-28T05:14:48;100860.31;;;-4.41;87.37
63903;BME280;50072;50.678;13.938;2023-02-28T05:17:30;100853.69;;;-4.51;87.64
63903;BME280;50072;50.678;13.938;2023-02-28T05:20:05;100863.00;;;-4.56;88.12
63903;BME280;50072;50.678;13.938;2023-02-28T05:22:34;100867.75;;;-4.48;88.04
63903;BME280;50072;50.678;13.938;2023-02-28T05:25:00;100862.28;;;-4.53;88.08
63903;BME280;50072;50.678;13.938;2023-02-28T05:27:27;100869.13;;;-4.55;88.06
63903;BME280;50072;50.678;13.938;2023-02-28T05:29:55;100868.16;;;-4.57;88.28
63903;BME280;50072;50.678;13.938;2023-02-28T05:32:22;100866.44;;;-4.57;88.08
63903;BME280;50072;50.678;13.938;2023-02-28T05:34:49;100874.34;;;-4.55;88.16
63903;BME280;50072;50.678;13.938;2023-02-28T05:37:16;100871.75;;;-4.55;87.97
63903;BME280;50072;50.678;13.938;2023-02-28T05:39:44;100876.16;;;-4.54;87.68
63903;BME280;50072;50.678;13.938;2023-02-28T05:42:11;100877.13;;;-4.52;87.69
63903;BME280;50072;50.678;13.938;2023-02-28T05:44:38;100882.91;;;-4.58;87.67
63903;BME280;50072;50.678;13.938;2023-02-28T05:47:03;100883.00;;;-4.56;87.94
63903;BME280;50072;50.678;13.938;2023-02-28T05:49:30;100893.72;;;-4.52;87.84
63903;BME280;50072;50.678;13.938;2023-02-28T05:51:57;100892.66;;;-4.55;87.81
63903;BME280;50072;50.678;13.938;2023-02-28T05:54:25;100893.28;;;-4.59;87.70
63903;BME280;50072;50.678;13.938;2023-02-28T05:56:51;100899.16;;;-4.63;88.56
63903;BME280;50072;50.678;13.938;2023-02-28T05:59:18;100895.72;;;-4.62;88.43
63903;BME280;50072;50.678;13.938;2023-02-28T06:01:47;100895.72;;;-4.62;88.57
63903;BME280;50072;50.678;13.938;2023-02-28T06:04:18;100905.44;;;-4.60;88.31
63903;BME280;50072;50.678;13.938;2023-02-28T06:06:46;100904.72;;;-4.57;88.62
63903;BME280;50072;50.678;13.938;2023-02-28T06:09:13;100902.44;;;-4.51;89.04
63903;BME280;50072;50.678;13.938;2023-02-28T06:11:39;100904.59;;;-4.44;88.29
63903;BME280;50072;50.678;13.938;2023-02-28T06:14:07;100902.28;;;-4.38;87.49
63903;BME280;50072;50.678;13.938;2023-02-28T06:16:34;100902.81;;;-4.28;87.26
63903;BME280;50072;50.678;13.938;2023-02-28T06:19:03;100906.25;;;-4.29;87.25
63903;BME280;50072;50.678;13.938;2023-02-28T06:21:30;100912.63;;;-4.24;87.04
63903;BME280;50072;50.678;13.938;2023-02-28T06:23:57;100910.19;;;-4.21;87.07
63903;BME280;50072;50.678;13.938;2023-02-28T06:26:25;100916.44;;;-4.18;86.98
63903;BME280;50072;50.678;13.938;2023-02-28T06:28:52;100912.31;;;-4.14;86.97
63903;BME280;50072;50.678;13.938;2023-02-28T06:31:19;100920.00;;;-4.17;86.42
63903;BME280;50072;50.678;13.938;2023-02-28T06:33:46;100923.84;;;-4.10;85.96
63903;BME280;50072;50.678;13.938;2023-02-28T06:36:14;100922.19;;;-4.08;85.51
63903;BME280;50072;50.678;13.938;2023-02-28T06:38:41;100928.81;;;-3.99;85.40
63903;BME280;50072;50.678;13.938;2023-02-28T06:41:08;100940.53;;;-3.92;85.27
63903;BME280;50072;50.678;13.938;2023-02-28T06:43:39;100943.84;;;-3.78;85.01
63903;BME280;50072;50.678;13.938;2023-02-28T06:46:07;100931.94;;;-3.73;84.68
63903;BME280;50072;50.678;13.938;2023-02-28T06:48:35;100933.16;;;-3.66;84.59
63903;BME280;50072;50.678;13.938;2023-02-28T06:51:03;100943.22;;;-3.57;83.76
63903;BME280;50072;50.678;13.938;2023-02-28T06:53:29;100940.31;;;-3.45;83.44
63903;BME280;50072;50.678;13.938;2023-02-28T06:55:57;100932.38;;;-3.31;83.58
63903;BME280;50072;50.678;13.938;2023-02-28T06:58:24;100950.78;;;-3.11;83.67
63903;BME280;50072;50.678;13.938;2023-02-28T07:00:51;100942.75;;;-2.98;82.78
63903;BME280;50072;50.678;13.938;2023-02-28T07:03:19;100949.81;;;-2.79;82.78
63903;BME280;50072;50.678;13.938;2023-02-28T07:05:46;100955.06;;;-2.61;81.55
63903;BME280;50072;50.678;13.938;2023-02-28T07:08:35;100959.31;;;-2.45;81.19
63903;BME280;50072;50.678;13.938;2023-02-28T07:11:05;100951.28;;;-2.30;79.73
63903;BME280;50072;50.678;13.938;2023-02-28T07:13:37;100957.25;;;-2.14;78.96
63903;BME280;50072;50.678;13.938;2023-02-28T07:16:07;100957.28;;;-1.95;76.73
63903;BME280;50072;50.678;13.938;2023-02-28T07:18:35;100967.94;;;-1.72;76.05
63903;BME280;50072;50.678;13.938;2023-02-28T07:21:08;100960.06;;;-1.52;75.28
63903;BME280;50072;50.678;13.938;2023-02-28T07:23:35;100967.78;;;-1.36;74.31
63903;BME280;50072;50.678;13.938;2023-02-28T07:26:05;100970.44;;;-1.15;73.95
63903;BME280;50072;50.678;13.938;2023-02-28T07:28:37;100961.56;;;-0.97;72.50
63903;BME280;50072;50.678;13.938;2023-02-28T07:31:07;100967.41;;;-0.83;71.66
63903;BME280;50072;50.678;13.938;2023-02-28T07:33:35;100962.91;;;-0.65;70.21
63903;BME280;50072;50.678;13.938;2023-02-28T07:36:04;100964.59;;;-0.44;69.79
63903;BME280;50072;50.678;13.938;2023-02-28T07:38:35;100964.41;;;-0.28;69.54
63903;BME280;50072;50.678;13.938;2023-02-28T07:41:04;100960.56;;;-0.13;68.46
63903;BME280;50072;50.678;13.938;2023-02-28T07:43:35;100962.06;;;0.03;68.71
63903;BME280;50072;50.678;13.938;2023-02-28T07:46:10;100959.34;;;0.24;67.51
63903;BME280;50072;50.678;13.938;2023-02-28T07:48:42;100953.94;;;0.43;65.89
63903;BME280;50072;50.678;13.938;2023-02-28T07:51:10;100962.09;;;0.51;64.07
63903;BME280;50072;50.678;13.938;2023-02-28T07:53:37;100964.47;;;0.67;64.31
63903;BME280;50072;50.678;13.938;2023-02-28T07:56:03;100969.94;;;0.74;62.01
63903;BME280;50072;50.678;13.938;2023-02-28T07:58:34;100966.25;;;0.93;61.85
63903;BME280;50072;50.678;13.938;2023-02-28T08:01:10;100971.91;;;1.05;61.58
63903;BME280;50072;50.678;13.938;2023-02-28T08:03:45;100969.63;;;1.14;60.66
63903;BME280;50072;50.678;13.938;2023-02-28T08:06:20;100974.31;;;1.23;60.56
63903;BME280;50072;50.678;13.938;2023-02-28T08:09:04;100964.69;;;1.25;60.11
63903;BME280;50072;50.678;13.938;2023-02-28T08:11:34;100967.50;;;1.30;60.03
63903;BME280;50072;50.678;13.938;2023-02-28T08:14:05;100963.31;;;1.36;58.98
63903;BME280;50072;50.678;13.938;2023-02-28T08:16:34;100962.94;;;1.51;59.36
63903;BME280;50072;50.678;13.938;2023-02-28T08:19:06;100961.63;;;1.66;59.21
63903;BME280;50072;50.678;13.938;2023-02-28T08:21:34;100969.16;;;1.82;59.02
63903;BME280;50072;50.678;13.938;2023-02-28T08:24:05;100971.16;;;1.89;56.38
63903;BME280;50072;50.678;13.938;2023-02-28T08:26:34;100974.09;;;1.99;57.32
63903;BME280;50072;50.678;13.938;2023-02-28T08:29:07;100972.75;;;2.13;57.16
63903;BME280;50072;50.678;13.938;2023-02-28T08:31:35;100979.63;;;2.08;54.93
63903;BME280;50072;50.678;13.938;2023-02-28T08:34:10;100973.09;;;2.24;55.55
63903;BME280;50072;50.678;13.938;2023-02-28T08:36:38;100982.50;;;2.45;55.80
63903;BME280;50072;50.678;13.938;2023-02-28T08:39:05;100975.72;;;2.54;54.81
63903;BME280;50072;50.678;13.938;2023-02-28T08:41:33;100978.81;;;2.70;54.50
63903;BME280;50072;50.678;13.938;2023-02-28T08:44:04;100977.28;;;2.78;53.14
63903;BME280;50072;50.678;13.938;2023-02-28T08:46:31;100980.69;;;2.74;52.19
63903;BME280;50072;50.678;13.938;2023-02-28T08:48:58;100977.09;;;2.72;52.22
63903;BME280;50072;50.678;13.938;2023-02-28T08:51:35;100978.41;;;2.88;52.35
63903;BME280;50072;50.678;13.938;2023-02-28T08:54:04;100979.47;;;2.94;52.37
63903;BME280;50072;50.678;13.938;2023-02-28T08:56:35;100979.97;;;3.13;51.13
63903;BME280;50072;50.678;13.938;2023-02-28T08:59:05;100974.00;;;3.22;50.26
63903;BME280;50072;50.678;13.938;2023-02-28T09:01:36;100967.19;;;3.30;51.39
63903;BME280;50072;50.678;13.938;2023-02-28T09:04:08;100980.81;;;3.45;50.85
63903;BME280;50072;50.678;13.938;2023-02-28T09:06:35;100973.78;;;3.48;49.89
63903;BME280;50072;50.678;13.938;2023-02-28T09:09:06;100972.19;;;3.54;50.28
63903;BME280;50072;50.678;13.938;2023-02-28T09:11:35;100977.72;;;3.63;49.67
63903;BME280;50072;50.678;13.938;2023-02-28T09:14:05;100969.53;;;3.91;49.42
63903;BME280;50072;50.678;13.938;2023-02-28T09:16:36;100961.44;;;4.24;47.21
63903;BME280;50072;50.678;13.938;2023-02-28T09:19:04;100956.72;;;4.52;47.72
63903;BME280;50072;50.678;13.938;2023-02-28T09:21:35;100963.25;;;4.70;46.83
63903;BME280;50072;50.678;13.938;2023-02-28T09:24:05;100967.84;;;4.80;45.83
63903;BME280;50072;50.678;13.938;2023-02-28T09:26:35;100968.50;;;5.14;45.58
63903;BME280;50072;50.678;13.938;2023-02-28T09:29:06;100966.38;;;5.43;46.46
63903;BME280;50072;50.678;13.938;2023-02-28T09:31:35;100974.34;;;5.45;45.10
63903;BME280;50072;50.678;13.938;2023-02-28T09:34:05;100964.47;;;5.36;46.05
63903;BME280;50072;50.678;13.938;2023-02-28T09:36:35;100973.59;;;5.53;44.27
63903;BME280;50072;50.678;13.938;2023-02-28T09:39:04;100974.94;;;5.82;46.67
63903;BME280;50072;50.678;13.938;2023-02-28T09:41:44;100964.28;;;5.79;43.67
63903;BME280;50072;50.678;13.938;2023-02-28T09:46:54;100973.75;;;6.21;42.34
63903;BME280;50072;50.678;13.938;2023-02-28T09:49:33;100963.25;;;6.30;41.79
63903;BME280;50072;50.678;13.938;2023-02-28T09:52:06;100965.09;;;6.34;40.93
63903;BME280;50072;50.678;13.938;2023-02-28T09:54:36;100956.63;;;6.68;41.20
63903;BME280;50072;50.678;13.938;2023-02-28T10:05:10;100955.97;;;7.97;38.92
63903;BME280;50072;50.678;13.938;2023-02-28T10:10:50;100951.94;;;8.74;37.26
63903;BME280;50072;50.678;13.938;2023-02-28T10:17:18;100948.47;;;9.09;35.35
63903;BME280;50072;50.678;13.938;2023-02-28T10:20:12;100947.59;;;9.47;35.57
63903;BME280;50072;50.678;13.938;2023-02-28T10:22:29;100949.34;;;9.92;36.11
63903;BME280;50072;50.678;13.938;2023-02-28T10:24:58;100949.38;;;9.95;34.78
63903;BME280;50072;50.678;13.938;2023-02-28T10:27:31;100937.59;;;10.59;33.89
63903;BME280;50072;50.678;13.938;2023-02-28T10:30:00;100942.03;;;10.62;34.04
63903;BME280;50072;50.678;13.938;2023-02-28T10:32:34;100940.09;;;10.93;32.28
63903;BME280;50072;50.678;13.938;2023-02-28T10:35:23;100942.72;;;10.99;31.81
63903;BME280;50072;50.678;13.938;2023-02-28T10:37:54;100936.44;;;11.05;30.58
63903;BME280;50072;50.678;13.938;2023-02-28T10:42:57;100928.63;;;11.81;30.96
63903;BME280;50072;50.678;13.938;2023-02-28T10:45:26;100929.09;;;12.25;30.32
63903;BME280;50072;50.678;13.938;2023-02-28T10:47:59;100927.47;;;12.12;29.76
63903;BME280;50072;50.678;13.938;2023-02-28T10:55:45;100917.72;;;13.37;27.96
63903;BME280;50072;50.678;13.938;2023-02-28T10:58:22;100920.88;;;13.62;28.46
63903;BME280;50072;50.678;13.938;2023-02-28T11:00:51;100921.19;;;14.40;27.71
63903;BME280;50072;50.678;13.938;2023-02-28T11:03:35;100916.97;;;15.10;25.59
63903;BME280;50072;50.678;13.938;2023-02-28T11:06:07;100909.34;;;15.65;25.02
63903;BME280;50072;50.678;13.938;2023-02-28T11:08:56;100908.84;;;15.85;25.23
63903;BME280;50072;50.678;13.938;2023-02-28T11:11:27;100902.94;;;16.35;23.21
63903;BME280;50072;50.678;13.938;2023-02-28T11:14:05;100908.38;;;16.65;23.25
63903;BME280;50072;50.678;13.938;2023-02-28T11:16:38;100897.13;;;17.35;23.11
63903;BME280;50072;50.678;13.938;2023-02-28T11:19:18;100893.44;;;17.38;22.71
63903;BME280;50072;50.678;13.938;2023-02-28T11:22:04;100904.28;;;18.15;21.84
63903;BME280;50072;50.678;13.938;2023-02-28T11:24:37;100889.16;;;17.83;21.87
63903;BME280;50072;50.678;13.938;2023-02-28T11:27:46;100887.28;;;18.11;21.76
63903;BME280;50072;50.678;13.938;2023-02-28T11:33:21;100882.22;;;19.19;19.65
63903;BME280;50072;50.678;13.938;2023-02-28T11:36:08;100879.38;;;19.65;20.00
63903;BME280;50072;50.678;13.938;2023-02-28T11:38:36;100879.25;;;20.09;18.86
63903;BME280;50072;50.678;13.938;2023-02-28T11:41:39;100868.69;;;19.82;19.24
63903;BME280;50072;50.678;13.938;2023-02-28T11:46:56;100873.88;;;20.28;19.72
63903;BME280;50072;50.678;13.938;2023-02-28T12:17:27;100858.66;;;22.07;16.75
63903;BME280;50072;50.678;13.938;2023-02-28T12:26:00;100864.00;;;21.75;17.24
63903;BME280;50072;50.678;13.938;2023-02-28T12:28:38;100854.47;;;20.36;17.72
63903;BME280;50072;50.678;13.938;2023-02-28T12:31:19;100859.16;;;15.56;22.55
63903;BME280;50072;50.678;13.938;2023-02-28T12:33:55;100855.41;;;13.10;25.79
63903;BME280;50072;50.678;13.938;2023-02-28T12:36:25;100848.88;;;11.10;28.89
63903;BME280;50072;50.678;13.938;2023-02-28T12:39:00;100851.28;;;9.97;30.02
63903;BME280;50072;50.678;13.938;2023-02-28T12:44:33;100840.75;;;9.32;32.12
63903;BME280;50072;50.678;13.938;2023-02-28T12:47:13;100846.63;;;10.48;30.78
63903;BME280;50072;50.678;13.938;2023-02-28T12:49:49;100840.00;;;12.64;27.42
63903;BME280;50072;50.678;13.938;2023-02-28T12:52:23;100819.09;;;15.42;24.25
63903;BME280;50072;50.678;13.938;2023-02-28T12:56:16;100830.59;;;16.45;22.29
63903;BME280;50072;50.678;13.938;2023-02-28T12:58:25;100829.44;;;17.62;21.10
63903;BME280;50072;50.678;13.938;2023-02-28T13:09:22;100824.41;;;18.95;19.57
63903;BME280;50072;50.678;13.938;2023-02-28T13:11:50;100820.88;;;19.15;19.49
63903;BME280;50072;50.678;13.938;2023-02-28T13:16:56;100823.66;;;19.13;19.71
63903;BME280;50072;50.678;13.938;2023-02-28T13:19:26;100824.00;;;18.82;19.70
63903;BME280;50072;50.678;13.938;2023-02-28T13:21:55;100818.78;;;19.42;19.50
63903;BME280;50072;50.678;13.938;2023-02-28T13:29:40;100811.31;;;19.68;18.54
63903;BME280;50072;50.678;13.938;2023-02-28T13:34:41;100814.81;;;18.64;19.09
63903;BME280;50072;50.678;13.938;2023-02-28T13:47:42;100815.16;;;20.81;17.72
63903;BME280;50072;50.678;13.938;2023-02-28T13:55:48;100794.38;;;20.42;17.55
63903;BME280;50072;50.678;13.938;2023-02-28T14:09:17;100792.41;;;21.19;16.86
63903;BME280;50072;50.678;13.938;2023-02-28T14:11:52;100782.97;;;21.44;16.85
63903;BME280;50072;50.678;13.938;2023-02-28T14:17:36;100778.56;;;20.31;18.06
63903;BME280;50072;50.678;13.938;2023-02-28T14:20:05;100786.38;;;19.80;18.52
63903;BME280;50072;50.678;13.938;2023-02-28T14:29:17;100784.53;;;18.53;19.64
63903;BME280;50072;50.678;13.938;2023-02-28T14:38:07;100791.84;;;19.17;19.98
63903;BME280;50072;50.678;13.938;2023-02-28T14:41:00;100780.38;;;18.66;20.37
63903;BME280;50072;50.678;13.938;2023-02-28T14:43:35;100786.38;;;17.80;20.76
63903;BME280;50072;50.678;13.938;2023-02-28T14:46:06;100783.59;;;17.32;21.58
63903;BME280;50072;50.678;13.938;2023-02-28T14:48:38;100784.47;;;16.51;22.56
63903;BME280;50072;50.678;13.938;2023-02-28T14:51:05;100778.75;;;15.69;22.72
63903;BME280;50072;50.678;13.938;2023-02-28T14:53:37;100784.66;;;15.50;23.31
63903;BME280;50072;50.678;13.938;2023-02-28T14:56:03;100777.06;;;15.33;23.60
63903;BME280;50072;50.678;13.938;2023-02-28T14:58:35;100776.00;;;15.05;24.08
63903;BME280;50072;50.678;13.938;2023-02-28T15:01:10;100775.91;;;15.08;24.12
63903;BME280;50072;50.678;13.938;2023-02-28T15:03:42;100782.84;;;13.10;26.77
63903;BME280;50072;50.678;13.938;2023-02-28T15:06:18;100770.56;;;10.80;29.83
63903;BME280;50072;50.678;13.938;2023-02-28T15:11:35;100773.97;;;8.58;33.44
63903;BME280;50072;50.678;13.938;2023-02-28T15:14:14;100769.38;;;7.92;35.14
63903;BME280;50072;50.678;13.938;2023-02-28T15:17:02;100777.25;;;7.63;37.05
63903;BME280;50072;50.678;13.938;2023-02-28T15:19:39;100768.09;;;7.13;38.61
63903;BME280;50072;50.678;13.938;2023-02-28T15:22:17;100779.06;;;6.47;40.17
63903;BME280;50072;50.678;13.938;2023-02-28T15:25:05;100784.69;;;5.95;41.57
63903;BME280;50072;50.678;13.938;2023-02-28T15:27:42;100781.59;;;5.59;43.09
63903;BME280;50072;50.678;13.938;2023-02-28T15:30:21;100785.66;;;5.32;44.21
63903;BME280;50072;50.678;13.938;2023-02-28T15:35:38;100785.78;;;4.82;45.80
63903;BME280;50072;50.678;13.938;2023-02-28T15:38:25;100790.81;;;4.66;45.91
63903;BME280;50072;50.678;13.938;2023-02-28T15:41:05;100787.91;;;4.51;46.57
63903;BME280;50072;50.678;13.938;2023-02-28T15:47:06;100784.97;;;4.36;47.35
63903;BME280;50072;50.678;13.938;2023-02-28T15:49:52;100792.00;;;4.32;47.80
63903;BME280;50072;50.678;13.938;2023-02-28T15:52:42;100796.25;;;4.24;47.89
63903;BME280;50072;50.678;13.938;2023-02-28T15:55:25;100795.25;;;4.19;48.22
63903;BME280;50072;50.678;13.938;2023-02-28T15:58:01;100795.19;;;4.15;48.10
63903;BME280;50072;50.678;13.938;2023-02-28T16:00:30;100801.09;;;4.01;48.63
63903;BME280;50072;50.678;13.938;2023-02-28T16:02:58;100787.78;;;3.97;49.08
63903;BME280;50072;50.678;13.938;2023-02-28T16:05:36;100789.25;;;3.83;49.63